This is the latest recevied weather packets stored in our database for station/object SPRFLD. If no packets are shown the sender has not sent any weather packets the latest 10 day(s).
| Time | Temp. | Humidity | Pressure | Rain* | Wind** | Luminosity | Snow |
|---|---|---|---|---|---|---|---|
| 1777775300 | 17.22° C | 74% | 1013 hPa | 0 mm | - | - | - |
| 1777772892 | 17.78° C | 70% | 1013.1 hPa | 0 mm | - | - | - |
| 1777771687 | 18.33° C | 69% | 1013.1 hPa | 0 mm | - | - | - |
| 1777771085 | 18.89° C | 67% | 1013.2 hPa | 0 mm | - | - | - |
| 1777769309 | 18.89° C | 66% | 1013.2 hPa | 0 mm | - | - | - |
| 1777768706 | 18.33° C | 69% | 1013.6 hPa | 0 mm | - | - | - |
| 1777763890 | 17.78° C | 66% | 1013.5 hPa | 0 mm | - | - | - |
| 1777762085 | 18.89° C | 63% | 1013.6 hPa | 0 mm | - | - | - |
| 1777757902 | 17.22° C | 71% | 1014.2 hPa | 0 mm | - | - | - |
| 1777754289 | 15° C | 78% | 1014.7 hPa | 0 mm | - | - | - |
| 1777753085 | 12.78° C | 82% | 1014.9 hPa | 0 mm | - | - | - |
| 1777748298 | 11.11° C | 85% | 1015.2 hPa | 0 mm | - | - | - |
| 1777741707 | 10.56° C | 86% | 1015.5 hPa | 0 mm | - | - | - |
| 1777741104 | 10.56° C | 87% | 1015.6 hPa | 0 mm | - | - | - |
| 1777739318 | 8.89° C | 89% | 1015.5 hPa | 0 mm | - | - | - |
| 1777737492 | 8.33° C | 92% | 1015.5 hPa | 0 mm | - | - | - |
| 1777733929 | 7.22° C | 92% | 1015.7 hPa | 0 mm | - | - | - |
| 1777726111 | 7.22° C | 90% | 1015.5 hPa | 0 mm | - | - | - |
| 1777717109 | 7.22° C | 90% | 1016.1 hPa | 0 mm | - | - | - |
| 1777715907 | 7.22° C | 90% | 1016.1 hPa | 0 mm | - | - | - |
| 1777715325 | 7.22° C | 89% | 1016.3 hPa | 0 mm | - | - | - |
| 1777714101 | 7.78° C | 88% | 1016.3 hPa | 0 mm | - | - | - |
| 1777713499 | 7.78° C | 88% | 1016.4 hPa | 0 mm | - | - | - |
| 1777707510 | 9.44° C | 81% | 1017.3 hPa | 0 mm | - | - | - |
| 1777706306 | 9.44° C | 82% | 1017.6 hPa | 0 mm | - | - | - |
* Rain latest hour (hover to see other rain measurements)
** Current wind speed in m/s (hover to see current wind gust speed)